sensor_id;sensor_type;location;lat;lon;timestamp;P1;durP1;ratioP1;P2;durP2;ratioP2
72864;SDS011;61000;48.120;11.548;2024-01-11T00:02:08;59.67;;;22.10;;
72864;SDS011;61000;48.120;11.548;2024-01-11T00:04:35;54.13;;;20.10;;
72864;SDS011;61000;48.120;11.548;2024-01-11T00:07:02;60.30;;;22.70;;
72864;SDS011;61000;48.120;11.548;2024-01-11T00:09:29;64.97;;;22.27;;
72864;SDS011;61000;48.120;11.548;2024-01-11T00:11:55;61.40;;;22.03;;
72864;SDS011;61000;48.120;11.548;2024-01-11T00:14:22;52.10;;;20.90;;
72864;SDS011;61000;48.120;11.548;2024-01-11T00:16:50;55.80;;;20.27;;
72864;SDS011;61000;48.120;11.548;2024-01-11T00:19:18;56.97;;;20.90;;
72864;SDS011;61000;48.120;11.548;2024-01-11T00:21:58;53.53;;;21.20;;
72864;SDS011;61000;48.120;11.548;2024-01-11T00:24:25;58.23;;;22.63;;
72864;SDS011;61000;48.120;11.548;2024-01-11T00:26:52;57.17;;;22.27;;
72864;SDS011;61000;48.120;11.548;2024-01-11T00:29:19;59.13;;;21.27;;
72864;SDS011;61000;48.120;11.548;2024-01-11T00:31:46;60.97;;;22.13;;
72864;SDS011;61000;48.120;11.548;2024-01-11T00:34:14;51.37;;;20.63;;
72864;SDS011;61000;48.120;11.548;2024-01-11T00:36:41;55.77;;;21.10;;
72864;SDS011;61000;48.120;11.548;2024-01-11T00:39:08;53.30;;;20.60;;
72864;SDS011;61000;48.120;11.548;2024-01-11T00:41:36;57.37;;;21.63;;
72864;SDS011;61000;48.120;11.548;2024-01-11T00:44:03;52.00;;;19.73;;
72864;SDS011;61000;48.120;11.548;2024-01-11T00:46:32;41.77;;;19.63;;
72864;SDS011;61000;48.120;11.548;2024-01-11T00:48:58;43.70;;;16.77;;
72864;SDS011;61000;48.120;11.548;2024-01-11T00:51:27;45.80;;;17.77;;
72864;SDS011;61000;48.120;11.548;2024-01-11T00:53:54;53.43;;;18.20;;
72864;SDS011;61000;48.120;11.548;2024-01-11T00:56:21;43.97;;;19.60;;
72864;SDS011;61000;48.120;11.548;2024-01-11T00:58:48;64.17;;;21.70;;
72864;SDS011;61000;48.120;11.548;2024-01-11T01:01:14;56.63;;;19.87;;
72864;SDS011;61000;48.120;11.548;2024-01-11T01:03:41;53.43;;;19.47;;
72864;SDS011;61000;48.120;11.548;2024-01-11T01:06:08;59.03;;;20.30;;
72864;SDS011;61000;48.120;11.548;2024-01-11T01:08:36;54.17;;;20.33;;
72864;SDS011;61000;48.120;11.548;2024-01-11T01:11:03;62.60;;;21.77;;
72864;SDS011;61000;48.120;11.548;2024-01-11T01:13:30;51.73;;;20.50;;
72864;SDS011;61000;48.120;11.548;2024-01-11T01:15:57;49.93;;;20.80;;
72864;SDS011;61000;48.120;11.548;2024-01-11T01:18:24;57.00;;;21.17;;
72864;SDS011;61000;48.120;11.548;2024-01-11T01:20:51;59.03;;;21.00;;
72864;SDS011;61000;48.120;11.548;2024-01-11T01:23:18;61.77;;;21.23;;
72864;SDS011;61000;48.120;11.548;2024-01-11T01:25:46;55.60;;;20.60;;
72864;SDS011;61000;48.120;11.548;2024-01-11T01:28:13;61.83;;;20.97;;
72864;SDS011;61000;48.120;11.548;2024-01-11T01:30:40;51.43;;;18.77;;
72864;SDS011;61000;48.120;11.548;2024-01-11T01:33:07;57.00;;;20.97;;
72864;SDS011;61000;48.120;11.548;2024-01-11T01:35:34;63.57;;;20.20;;
72864;SDS011;61000;48.120;11.548;2024-01-11T01:38:02;51.83;;;19.80;;
72864;SDS011;61000;48.120;11.548;2024-01-11T01:40:29;58.07;;;19.90;;
72864;SDS011;61000;48.120;11.548;2024-01-11T01:43:01;52.93;;;19.90;;
72864;SDS011;61000;48.120;11.548;2024-01-11T01:45:32;56.93;;;20.60;;
72864;SDS011;61000;48.120;11.548;2024-01-11T01:47:59;50.67;;;19.07;;
72864;SDS011;61000;48.120;11.548;2024-01-11T01:50:27;52.87;;;18.10;;
72864;SDS011;61000;48.120;11.548;2024-01-11T01:52:54;57.20;;;20.07;;
72864;SDS011;61000;48.120;11.548;2024-01-11T01:55:21;58.50;;;20.87;;
72864;SDS011;61000;48.120;11.548;2024-01-11T01:57:49;49.43;;;19.17;;
72864;SDS011;61000;48.120;11.548;2024-01-11T02:00:18;52.63;;;20.27;;
72864;SDS011;61000;48.120;11.548;2024-01-11T02:02:46;58.67;;;20.20;;
72864;SDS011;61000;48.120;11.548;2024-01-11T02:05:17;56.37;;;21.00;;
72864;SDS011;61000;48.120;11.548;2024-01-11T02:07:44;52.93;;;20.93;;
72864;SDS011;61000;48.120;11.548;2024-01-11T02:10:12;50.93;;;17.93;;
72864;SDS011;61000;48.120;11.548;2024-01-11T02:12:38;49.30;;;18.20;;
72864;SDS011;61000;48.120;11.548;2024-01-11T02:15:07;51.43;;;19.60;;
72864;SDS011;61000;48.120;11.548;2024-01-11T02:17:36;47.73;;;18.17;;
72864;SDS011;61000;48.120;11.548;2024-01-11T02:20:06;53.20;;;17.53;;
72864;SDS011;61000;48.120;11.548;2024-01-11T02:22:34;53.03;;;20.13;;
72864;SDS011;61000;48.120;11.548;2024-01-11T02:25:06;65.80;;;19.23;;
72864;SDS011;61000;48.120;11.548;2024-01-11T02:27:44;54.77;;;18.87;;
72864;SDS011;61000;48.120;11.548;2024-01-11T02:30:12;46.63;;;17.03;;
72864;SDS011;61000;48.120;11.548;2024-01-11T02:32:39;54.40;;;19.27;;
72864;SDS011;61000;48.120;11.548;2024-01-11T02:35:06;49.70;;;16.93;;
72864;SDS011;61000;48.120;11.548;2024-01-11T02:37:34;43.00;;;19.37;;
72864;SDS011;61000;48.120;11.548;2024-01-11T02:40:02;53.70;;;18.50;;
72864;SDS011;61000;48.120;11.548;2024-01-11T02:42:31;41.33;;;16.90;;
72864;SDS011;61000;48.120;11.548;2024-01-11T02:44:58;53.93;;;19.10;;
72864;SDS011;61000;48.120;11.548;2024-01-11T02:47:25;53.03;;;18.30;;
72864;SDS011;61000;48.120;11.548;2024-01-11T02:49:52;48.33;;;18.27;;
72864;SDS011;61000;48.120;11.548;2024-01-11T02:52:19;45.53;;;17.93;;
72864;SDS011;61000;48.120;11.548;2024-01-11T02:54:46;55.10;;;20.07;;
72864;SDS011;61000;48.120;11.548;2024-01-11T02:57:13;40.73;;;17.67;;
72864;SDS011;61000;48.120;11.548;2024-01-11T02:59:42;44.57;;;17.70;;
72864;SDS011;61000;48.120;11.548;2024-01-11T03:02:09;53.07;;;17.37;;
72864;SDS011;61000;48.120;11.548;2024-01-11T03:04:36;45.00;;;17.77;;
72864;SDS011;61000;48.120;11.548;2024-01-11T03:07:03;45.60;;;18.60;;
72864;SDS011;61000;48.120;11.548;2024-01-11T03:09:30;54.40;;;18.80;;
72864;SDS011;61000;48.120;11.548;2024-01-11T03:11:57;49.93;;;19.07;;
72864;SDS011;61000;48.120;11.548;2024-01-11T03:14:24;47.37;;;19.17;;
72864;SDS011;61000;48.120;11.548;2024-01-11T03:16:52;48.70;;;18.40;;
72864;SDS011;61000;48.120;11.548;2024-01-11T03:19:19;52.23;;;17.67;;
72864;SDS011;61000;48.120;11.548;2024-01-11T03:21:46;44.80;;;17.90;;
72864;SDS011;61000;48.120;11.548;2024-01-11T03:24:13;53.83;;;20.97;;
72864;SDS011;61000;48.120;11.548;2024-01-11T03:26:40;51.23;;;18.47;;
72864;SDS011;61000;48.120;11.548;2024-01-11T03:29:07;54.47;;;18.90;;
72864;SDS011;61000;48.120;11.548;2024-01-11T03:31:34;45.93;;;17.77;;
72864;SDS011;61000;48.120;11.548;2024-01-11T03:34:04;45.87;;;17.77;;
72864;SDS011;61000;48.120;11.548;2024-01-11T03:36:31;46.63;;;18.33;;
72864;SDS011;61000;48.120;11.548;2024-01-11T03:38:58;42.77;;;17.27;;
72864;SDS011;61000;48.120;11.548;2024-01-11T03:41:25;51.00;;;18.87;;
72864;SDS011;61000;48.120;11.548;2024-01-11T03:43:52;40.07;;;17.00;;
72864;SDS011;61000;48.120;11.548;2024-01-11T03:46:19;50.17;;;18.07;;
72864;SDS011;61000;48.120;11.548;2024-01-11T03:48:46;40.93;;;17.87;;
72864;SDS011;61000;48.120;11.548;2024-01-11T03:51:15;46.97;;;18.50;;
72864;SDS011;61000;48.120;11.548;2024-01-11T03:53:41;51.67;;;19.00;;
72864;SDS011;61000;48.120;11.548;2024-01-11T03:56:08;51.87;;;18.47;;
72864;SDS011;61000;48.120;11.548;2024-01-11T03:58:35;39.97;;;16.53;;
72864;SDS011;61000;48.120;11.548;2024-01-11T04:01:04;47.80;;;19.33;;
72864;SDS011;61000;48.120;11.548;2024-01-11T04:03:32;46.17;;;18.37;;
72864;SDS011;61000;48.120;11.548;2024-01-11T04:05:59;51.17;;;19.10;;
72864;SDS011;61000;48.120;11.548;2024-01-11T04:08:27;53.50;;;20.40;;
72864;SDS011;61000;48.120;11.548;2024-01-11T04:10:54;54.50;;;19.53;;
72864;SDS011;61000;48.120;11.548;2024-01-11T04:13:21;48.63;;;16.93;;
72864;SDS011;61000;48.120;11.548;2024-01-11T04:15:48;44.17;;;18.77;;
72864;SDS011;61000;48.120;11.548;2024-01-11T04:18:15;44.70;;;16.67;;
72864;SDS011;61000;48.120;11.548;2024-01-11T04:20:42;42.27;;;17.30;;
72864;SDS011;61000;48.120;11.548;2024-01-11T04:23:08;40.07;;;14.77;;
72864;SDS011;61000;48.120;11.548;2024-01-11T04:25:37;48.70;;;16.77;;
72864;SDS011;61000;48.120;11.548;2024-01-11T04:28:04;47.87;;;17.37;;
72864;SDS011;61000;48.120;11.548;2024-01-11T04:30:31;46.43;;;18.67;;
72864;SDS011;61000;48.120;11.548;2024-01-11T04:32:58;44.67;;;17.07;;
72864;SDS011;61000;48.120;11.548;2024-01-11T04:35:25;42.67;;;18.37;;
72864;SDS011;61000;48.120;11.548;2024-01-11T04:37:52;40.53;;;16.90;;
72864;SDS011;61000;48.120;11.548;2024-01-11T04:40:20;48.93;;;18.40;;
72864;SDS011;61000;48.120;11.548;2024-01-11T04:42:49;46.37;;;17.63;;
72864;SDS011;61000;48.120;11.548;2024-01-11T04:45:16;41.23;;;16.70;;
72864;SDS011;61000;48.120;11.548;2024-01-11T04:47:42;49.07;;;17.80;;
72864;SDS011;61000;48.120;11.548;2024-01-11T04:50:09;47.47;;;17.73;;
72864;SDS011;61000;48.120;11.548;2024-01-11T04:52:36;47.73;;;19.93;;
72864;SDS011;61000;48.120;11.548;2024-01-11T04:55:03;49.40;;;18.30;;
72864;SDS011;61000;48.120;11.548;2024-01-11T04:57:31;48.87;;;19.07;;
72864;SDS011;61000;48.120;11.548;2024-01-11T04:59:59;47.80;;;17.63;;
72864;SDS011;61000;48.120;11.548;2024-01-11T05:02:26;55.27;;;19.97;;
72864;SDS011;61000;48.120;11.548;2024-01-11T05:04:53;50.77;;;17.77;;
72864;SDS011;61000;48.120;11.548;2024-01-11T05:07:20;47.87;;;19.27;;
72864;SDS011;61000;48.120;11.548;2024-01-11T05:09:46;45.87;;;17.10;;
72864;SDS011;61000;48.120;11.548;2024-01-11T05:12:13;50.27;;;19.87;;
72864;SDS011;61000;48.120;11.548;2024-01-11T05:14:41;42.83;;;17.63;;
72864;SDS011;61000;48.120;11.548;2024-01-11T05:17:09;51.07;;;19.03;;
72864;SDS011;61000;48.120;11.548;2024-01-11T05:19:36;43.87;;;18.87;;
72864;SDS011;61000;48.120;11.548;2024-01-11T05:22:03;42.20;;;19.07;;
72864;SDS011;61000;48.120;11.548;2024-01-11T05:24:30;45.97;;;19.03;;
72864;SDS011;61000;48.120;11.548;2024-01-11T05:26:57;41.53;;;18.50;;
72864;SDS011;61000;48.120;11.548;2024-01-11T05:29:24;47.47;;;19.20;;
72864;SDS011;61000;48.120;11.548;2024-01-11T05:31:51;39.20;;;17.97;;
72864;SDS011;61000;48.120;11.548;2024-01-11T05:34:20;45.67;;;18.10;;
72864;SDS011;61000;48.120;11.548;2024-01-11T05:36:46;48.47;;;18.90;;
72864;SDS011;61000;48.120;11.548;2024-01-11T05:39:17;46.47;;;19.37;;
72864;SDS011;61000;48.120;11.548;2024-01-11T05:41:46;46.47;;;17.90;;
72864;SDS011;61000;48.120;11.548;2024-01-11T05:44:13;40.90;;;19.17;;
72864;SDS011;61000;48.120;11.548;2024-01-11T05:46:42;43.40;;;18.27;;
72864;SDS011;61000;48.120;11.548;2024-01-11T05:49:21;37.10;;;16.37;;
72864;SDS011;61000;48.120;11.548;2024-01-11T05:51:58;42.27;;;17.40;;
72864;SDS011;61000;48.120;11.548;2024-01-11T05:54:31;47.93;;;17.63;;
72864;SDS011;61000;48.120;11.548;2024-01-11T05:57:01;39.93;;;17.60;;
72864;SDS011;61000;48.120;11.548;2024-01-11T05:59:30;46.40;;;19.13;;
72864;SDS011;61000;48.120;11.548;2024-01-11T06:01:59;48.77;;;19.17;;
72864;SDS011;61000;48.120;11.548;2024-01-11T06:04:29;43.10;;;17.43;;
72864;SDS011;61000;48.120;11.548;2024-01-11T06:07:09;40.07;;;18.00;;
72864;SDS011;61000;48.120;11.548;2024-01-11T06:09:36;39.47;;;17.57;;
72864;SDS011;61000;48.120;11.548;2024-01-11T06:12:03;36.57;;;17.20;;
72864;SDS011;61000;48.120;11.548;2024-01-11T06:14:36;42.63;;;17.40;;
72864;SDS011;61000;48.120;11.548;2024-01-11T06:17:20;44.50;;;17.53;;
72864;SDS011;61000;48.120;11.548;2024-01-11T06:26:07;44.17;;;17.80;;
72864;SDS011;61000;48.120;11.548;2024-01-11T06:28:34;45.07;;;19.00;;
72864;SDS011;61000;48.120;11.548;2024-01-11T06:31:01;43.17;;;17.97;;
72864;SDS011;61000;48.120;11.548;2024-01-11T06:33:28;41.50;;;17.57;;
72864;SDS011;61000;48.120;11.548;2024-01-11T06:35:55;44.40;;;18.13;;
72864;SDS011;61000;48.120;11.548;2024-01-11T06:38:22;47.67;;;18.87;;
72864;SDS011;61000;48.120;11.548;2024-01-11T06:40:49;46.97;;;19.47;;
72864;SDS011;61000;48.120;11.548;2024-01-11T06:43:17;46.40;;;19.00;;
72864;SDS011;61000;48.120;11.548;2024-01-11T06:45:44;38.43;;;17.50;;
72864;SDS011;61000;48.120;11.548;2024-01-11T06:48:11;39.50;;;17.90;;
72864;SDS011;61000;48.120;11.548;2024-01-11T06:50:38;43.27;;;17.10;;
72864;SDS011;61000;48.120;11.548;2024-01-11T06:53:05;39.77;;;17.87;;
72864;SDS011;61000;48.120;11.548;2024-01-11T06:55:32;45.10;;;18.27;;
72864;SDS011;61000;48.120;11.548;2024-01-11T06:57:59;41.33;;;17.20;;
72864;SDS011;61000;48.120;11.548;2024-01-11T07:00:28;43.83;;;17.33;;
72864;SDS011;61000;48.120;11.548;2024-01-11T07:02:55;36.63;;;16.57;;
72864;SDS011;61000;48.120;11.548;2024-01-11T07:05:22;38.67;;;16.33;;
72864;SDS011;61000;48.120;11.548;2024-01-11T07:07:49;32.20;;;16.17;;
72864;SDS011;61000;48.120;11.548;2024-01-11T07:10:16;40.60;;;16.17;;
72864;SDS011;61000;48.120;11.548;2024-01-11T07:12:42;36.83;;;17.03;;
72864;SDS011;61000;48.120;11.548;2024-01-11T07:15:11;40.07;;;16.27;;
72864;SDS011;61000;48.120;11.548;2024-01-11T07:17:39;37.03;;;15.97;;
72864;SDS011;61000;48.120;11.548;2024-01-11T07:20:07;39.33;;;15.27;;
72864;SDS011;61000;48.120;11.548;2024-01-11T07:22:35;42.63;;;17.27;;
72864;SDS011;61000;48.120;11.548;2024-01-11T07:25:04;39.60;;;16.10;;
72864;SDS011;61000;48.120;11.548;2024-01-11T07:27:32;39.33;;;17.23;;
72864;SDS011;61000;48.120;11.548;2024-01-11T07:29:59;35.70;;;16.17;;
72864;SDS011;61000;48.120;11.548;2024-01-11T07:32:27;45.83;;;16.93;;
72864;SDS011;61000;48.120;11.548;2024-01-11T07:34:55;42.07;;;17.20;;
72864;SDS011;61000;48.120;11.548;2024-01-11T07:37:22;42.93;;;17.30;;
72864;SDS011;61000;48.120;11.548;2024-01-11T07:39:50;44.53;;;16.40;;
72864;SDS011;61000;48.120;11.548;2024-01-11T07:42:17;37.10;;;15.87;;
72864;SDS011;61000;48.120;11.548;2024-01-11T07:44:44;37.53;;;15.10;;
72864;SDS011;61000;48.120;11.548;2024-01-11T07:47:11;45.87;;;16.83;;
72864;SDS011;61000;48.120;11.548;2024-01-11T07:49:38;43.23;;;16.70;;
72864;SDS011;61000;48.120;11.548;2024-01-11T07:52:06;45.73;;;17.33;;
72864;SDS011;61000;48.120;11.548;2024-01-11T07:54:33;43.23;;;18.07;;
72864;SDS011;61000;48.120;11.548;2024-01-11T07:57:00;44.47;;;16.80;;
72864;SDS011;61000;48.120;11.548;2024-01-11T07:59:28;38.00;;;17.07;;
72864;SDS011;61000;48.120;11.548;2024-01-11T08:02:00;47.83;;;17.60;;
72864;SDS011;61000;48.120;11.548;2024-01-11T08:04:27;45.63;;;17.63;;
72864;SDS011;61000;48.120;11.548;2024-01-11T08:06:54;43.40;;;16.80;;
72864;SDS011;61000;48.120;11.548;2024-01-11T08:09:22;38.93;;;17.70;;
72864;SDS011;61000;48.120;11.548;2024-01-11T08:11:49;46.03;;;18.37;;
72864;SDS011;61000;48.120;11.548;2024-01-11T08:14:17;41.37;;;16.47;;
72864;SDS011;61000;48.120;11.548;2024-01-11T08:16:44;43.07;;;18.00;;
72864;SDS011;61000;48.120;11.548;2024-01-11T08:19:11;44.53;;;19.07;;
72864;SDS011;61000;48.120;11.548;2024-01-11T08:21:38;44.83;;;17.67;;
72864;SDS011;61000;48.120;11.548;2024-01-11T08:24:06;43.47;;;19.10;;
72864;SDS011;61000;48.120;11.548;2024-01-11T08:26:35;47.00;;;18.40;;
72864;SDS011;61000;48.120;11.548;2024-01-11T08:29:02;43.50;;;17.80;;
72864;SDS011;61000;48.120;11.548;2024-01-11T08:31:30;47.27;;;17.90;;
72864;SDS011;61000;48.120;11.548;2024-01-11T08:33:57;44.97;;;18.47;;
72864;SDS011;61000;48.120;11.548;2024-01-11T08:36:24;40.00;;;18.50;;
72864;SDS011;61000;48.120;11.548;2024-01-11T08:38:58;44.67;;;19.33;;
72864;SDS011;61000;48.120;11.548;2024-01-11T08:41:25;43.33;;;19.07;;
72864;SDS011;61000;48.120;11.548;2024-01-11T08:43:53;44.90;;;20.30;;
72864;SDS011;61000;48.120;11.548;2024-01-11T08:46:23;47.07;;;20.97;;
72864;SDS011;61000;48.120;11.548;2024-01-11T08:48:50;54.63;;;19.80;;
72864;SDS011;61000;48.120;11.548;2024-01-11T08:51:17;50.27;;;22.50;;
72864;SDS011;61000;48.120;11.548;2024-01-11T08:53:44;51.27;;;20.33;;
72864;SDS011;61000;48.120;11.548;2024-01-11T08:56:12;45.33;;;19.33;;
72864;SDS011;61000;48.120;11.548;2024-01-11T08:58:41;42.37;;;16.03;;
72864;SDS011;61000;48.120;11.548;2024-01-11T09:01:09;57.73;;;22.57;;
72864;SDS011;61000;48.120;11.548;2024-01-11T09:03:37;44.73;;;20.17;;
72864;SDS011;61000;48.120;11.548;2024-01-11T09:06:04;48.80;;;20.87;;
72864;SDS011;61000;48.120;11.548;2024-01-11T09:08:31;52.20;;;20.43;;
72864;SDS011;61000;48.120;11.548;2024-01-11T09:10:59;41.27;;;19.87;;
72864;SDS011;61000;48.120;11.548;2024-01-11T09:13:27;49.30;;;21.17;;
72864;SDS011;61000;48.120;11.548;2024-01-11T09:15:54;48.43;;;21.10;;
72864;SDS011;61000;48.120;11.548;2024-01-11T09:18:23;42.83;;;19.07;;
72864;SDS011;61000;48.120;11.548;2024-01-11T09:20:50;44.67;;;20.60;;
72864;SDS011;61000;48.120;11.548;2024-01-11T09:23:17;47.07;;;20.23;;
72864;SDS011;61000;48.120;11.548;2024-01-11T09:25:44;44.87;;;20.10;;
72864;SDS011;61000;48.120;11.548;2024-01-11T09:28:11;50.07;;;21.87;;
72864;SDS011;61000;48.120;11.548;2024-01-11T09:30:37;47.97;;;21.53;;
72864;SDS011;61000;48.120;11.548;2024-01-11T09:33:04;57.53;;;24.70;;
72864;SDS011;61000;48.120;11.548;2024-01-11T09:35:33;56.03;;;24.70;;
72864;SDS011;61000;48.120;11.548;2024-01-11T09:38:00;73.73;;;27.97;;
72864;SDS011;61000;48.120;11.548;2024-01-11T09:40:27;72.03;;;28.03;;
72864;SDS011;61000;48.120;11.548;2024-01-11T09:42:54;68.43;;;26.67;;
72864;SDS011;61000;48.120;11.548;2024-01-11T09:45:20;70.37;;;28.67;;
72864;SDS011;61000;48.120;11.548;2024-01-11T09:47:47;78.53;;;28.63;;
72864;SDS011;61000;48.120;11.548;2024-01-11T09:50:17;74.57;;;27.87;;
72864;SDS011;61000;48.120;11.548;2024-01-11T09:52:47;62.23;;;25.63;;
72864;SDS011;61000;48.120;11.548;2024-01-11T09:55:14;79.37;;;28.90;;
72864;SDS011;61000;48.120;11.548;2024-01-11T09:57:43;68.37;;;24.40;;
72864;SDS011;61000;48.120;11.548;2024-01-11T10:00:12;65.50;;;26.83;;
72864;SDS011;61000;48.120;11.548;2024-01-11T10:02:43;61.77;;;26.40;;
72864;SDS011;61000;48.120;11.548;2024-01-11T10:05:11;62.83;;;25.60;;
72864;SDS011;61000;48.120;11.548;2024-01-11T10:07:39;64.60;;;24.53;;
72864;SDS011;61000;48.120;11.548;2024-01-11T10:10:08;63.23;;;26.40;;
72864;SDS011;61000;48.120;11.548;2024-01-11T10:12:35;55.13;;;26.00;;
72864;SDS011;61000;48.120;11.548;2024-01-11T10:15:04;71.87;;;26.87;;
72864;SDS011;61000;48.120;11.548;2024-01-11T10:17:34;67.33;;;27.03;;
72864;SDS011;61000;48.120;11.548;2024-01-11T10:20:02;69.10;;;28.43;;
72864;SDS011;61000;48.120;11.548;2024-01-11T10:22:29;63.53;;;27.87;;
72864;SDS011;61000;48.120;11.548;2024-01-11T10:25:10;73.47;;;29.47;;
72864;SDS011;61000;48.120;11.548;2024-01-11T10:27:39;61.73;;;25.63;;
72864;SDS011;61000;48.120;11.548;2024-01-11T10:30:08;67.67;;;26.13;;
72864;SDS011;61000;48.120;11.548;2024-01-11T10:32:38;65.50;;;27.83;;
72864;SDS011;61000;48.120;11.548;2024-01-11T10:35:05;68.20;;;29.27;;
72864;SDS011;61000;48.120;11.548;2024-01-11T10:37:32;66.60;;;26.27;;
72864;SDS011;61000;48.120;11.548;2024-01-11T10:40:02;61.13;;;24.17;;
72864;SDS011;61000;48.120;11.548;2024-01-11T10:42:39;64.10;;;26.00;;
72864;SDS011;61000;48.120;11.548;2024-01-11T10:45:10;70.30;;;27.37;;
72864;SDS011;61000;48.120;11.548;2024-01-11T10:47:41;67.80;;;24.83;;
72864;SDS011;61000;48.120;11.548;2024-01-11T10:50:15;63.20;;;27.10;;
72864;SDS011;61000;48.120;11.548;2024-01-11T10:52:46;66.73;;;26.83;;
72864;SDS011;61000;48.120;11.548;2024-01-11T10:55:21;71.33;;;29.20;;
72864;SDS011;61000;48.120;11.548;2024-01-11T10:57:52;69.07;;;28.13;;
72864;SDS011;61000;48.120;11.548;2024-01-11T11:00:21;64.93;;;26.10;;
72864;SDS011;61000;48.120;11.548;2024-01-11T11:02:48;53.20;;;23.37;;
72864;SDS011;61000;48.120;11.548;2024-01-11T11:05:18;62.27;;;25.67;;
72864;SDS011;61000;48.120;11.548;2024-01-11T11:07:47;68.30;;;30.43;;
72864;SDS011;61000;48.120;11.548;2024-01-11T11:10:15;66.40;;;30.00;;
72864;SDS011;61000;48.120;11.548;2024-01-11T11:12:44;69.93;;;27.50;;
72864;SDS011;61000;48.120;11.548;2024-01-11T11:15:14;61.23;;;25.63;;
72864;SDS011;61000;48.120;11.548;2024-01-11T11:17:41;72.87;;;28.77;;
72864;SDS011;61000;48.120;11.548;2024-01-11T11:20:10;66.60;;;26.93;;
72864;SDS011;61000;48.120;11.548;2024-01-11T11:22:39;71.37;;;27.90;;
72864;SDS011;61000;48.120;11.548;2024-01-11T11:25:08;63.77;;;27.97;;
72864;SDS011;61000;48.120;11.548;2024-01-11T11:27:35;66.63;;;27.93;;
72864;SDS011;61000;48.120;11.548;2024-01-11T11:30:03;70.50;;;26.53;;
72864;SDS011;61000;48.120;11.548;2024-01-11T11:32:38;63.17;;;28.13;;
72864;SDS011;61000;48.120;11.548;2024-01-11T11:35:09;70.63;;;29.23;;
72864;SDS011;61000;48.120;11.548;2024-01-11T11:37:36;68.07;;;26.87;;
72864;SDS011;61000;48.120;11.548;2024-01-11T11:40:04;76.47;;;30.07;;
72864;SDS011;61000;48.120;11.548;2024-01-11T11:42:33;71.90;;;30.33;;
72864;SDS011;61000;48.120;11.548;2024-01-11T11:45:00;70.47;;;28.70;;
72864;SDS011;61000;48.120;11.548;2024-01-11T11:47:33;75.70;;;30.70;;
72864;SDS011;61000;48.120;11.548;2024-01-11T11:50:07;75.47;;;29.57;;
72864;SDS011;61000;48.120;11.548;2024-01-11T11:52:36;73.50;;;28.40;;
72864;SDS011;61000;48.120;11.548;2024-01-11T11:55:04;79.23;;;29.67;;
72864;SDS011;61000;48.120;11.548;2024-01-11T11:57:33;68.87;;;27.33;;
72864;SDS011;61000;48.120;11.548;2024-01-11T12:00:00;74.23;;;30.03;;
72864;SDS011;61000;48.120;11.548;2024-01-11T12:02:36;62.97;;;27.87;;
72864;SDS011;61000;48.120;11.548;2024-01-11T12:05:04;73.33;;;28.40;;
72864;SDS011;61000;48.120;11.548;2024-01-11T12:07:32;72.90;;;30.07;;
72864;SDS011;61000;48.120;11.548;2024-01-11T12:09:59;59.23;;;25.60;;
72864;SDS011;61000;48.120;11.548;2024-01-11T12:12:26;75.73;;;28.70;;
72864;SDS011;61000;48.120;11.548;2024-01-11T12:14:54;67.10;;;29.90;;
72864;SDS011;61000;48.120;11.548;2024-01-11T12:17:21;64.13;;;27.57;;
72864;SDS011;61000;48.120;11.548;2024-01-11T12:19:48;71.63;;;28.60;;
72864;SDS011;61000;48.120;11.548;2024-01-11T12:22:17;73.37;;;28.63;;
72864;SDS011;61000;48.120;11.548;2024-01-11T12:24:46;65.80;;;28.20;;
72864;SDS011;61000;48.120;11.548;2024-01-11T12:27:13;62.92;;;26.55;;
72864;SDS011;61000;48.120;11.548;2024-01-11T12:29:40;70.30;;;27.47;;
72864;SDS011;61000;48.120;11.548;2024-01-11T12:32:08;61.43;;;28.20;;
72864;SDS011;61000;48.120;11.548;2024-01-11T12:34:36;59.97;;;26.60;;
72864;SDS011;61000;48.120;11.548;2024-01-11T12:37:05;66.27;;;27.30;;
72864;SDS011;61000;48.120;11.548;2024-01-11T12:39:32;71.43;;;27.10;;
72864;SDS011;61000;48.120;11.548;2024-01-11T12:42:00;63.47;;;28.67;;
72864;SDS011;61000;48.120;11.548;2024-01-11T12:44:27;67.70;;;28.30;;
72864;SDS011;61000;48.120;11.548;2024-01-11T12:46:54;66.30;;;27.67;;
72864;SDS011;61000;48.120;11.548;2024-01-11T12:49:21;60.70;;;26.70;;
72864;SDS011;61000;48.120;11.548;2024-01-11T12:51:49;65.93;;;26.73;;
72864;SDS011;61000;48.120;11.548;2024-01-11T12:54:16;59.53;;;25.90;;
72864;SDS011;61000;48.120;11.548;2024-01-11T12:56:44;59.63;;;27.63;;
72864;SDS011;61000;48.120;11.548;2024-01-11T12:59:13;65.13;;;27.20;;
72864;SDS011;61000;48.120;11.548;2024-01-11T13:01:41;62.20;;;26.63;;
72864;SDS011;61000;48.120;11.548;2024-01-11T13:04:09;62.77;;;25.90;;
72864;SDS011;61000;48.120;11.548;2024-01-11T13:06:36;66.13;;;27.80;;
72864;SDS011;61000;48.120;11.548;2024-01-11T13:09:03;64.50;;;27.23;;
72864;SDS011;61000;48.120;11.548;2024-01-11T13:11:30;67.43;;;27.07;;
72864;SDS011;61000;48.120;11.548;2024-01-11T13:13:57;68.07;;;28.23;;
72864;SDS011;61000;48.120;11.548;2024-01-11T13:16:31;65.43;;;26.93;;
72864;SDS011;61000;48.120;11.548;2024-01-11T13:18:58;59.87;;;26.50;;
72864;SDS011;61000;48.120;11.548;2024-01-11T13:21:24;69.50;;;26.23;;
72864;SDS011;61000;48.120;11.548;2024-01-11T13:23:50;74.27;;;29.60;;
72864;SDS011;61000;48.120;11.548;2024-01-11T13:26:18;65.70;;;27.70;;
72864;SDS011;61000;48.120;11.548;2024-01-11T13:28:45;67.87;;;28.37;;
72864;SDS011;61000;48.120;11.548;2024-01-11T13:31:12;68.83;;;26.43;;
72864;SDS011;61000;48.120;11.548;2024-01-11T13:33:40;71.03;;;28.53;;
72864;SDS011;61000;48.120;11.548;2024-01-11T13:36:07;63.70;;;27.17;;
72864;SDS011;61000;48.120;11.548;2024-01-11T13:38:34;60.43;;;27.13;;
72864;SDS011;61000;48.120;11.548;2024-01-11T13:41:02;65.60;;;29.03;;
72864;SDS011;61000;48.120;11.548;2024-01-11T13:43:30;65.13;;;27.03;;
72864;SDS011;61000;48.120;11.548;2024-01-11T13:45:57;71.23;;;28.40;;
72864;SDS011;61000;48.120;11.548;2024-01-11T13:48:24;66.57;;;27.37;;
72864;SDS011;61000;48.120;11.548;2024-01-11T13:50:52;64.47;;;26.83;;
72864;SDS011;61000;48.120;11.548;2024-01-11T13:53:19;67.53;;;27.97;;
72864;SDS011;61000;48.120;11.548;2024-01-11T13:55:48;69.27;;;27.57;;
72864;SDS011;61000;48.120;11.548;2024-01-11T13:58:16;71.73;;;29.13;;
72864;SDS011;61000;48.120;11.548;2024-01-11T14:00:44;61.70;;;26.73;;
72864;SDS011;61000;48.120;11.548;2024-01-11T14:03:11;76.13;;;28.43;;
72864;SDS011;61000;48.120;11.548;2024-01-11T14:05:37;68.60;;;27.17;;
72864;SDS011;61000;48.120;11.548;2024-01-11T14:08:06;74.73;;;29.60;;
72864;SDS011;61000;48.120;11.548;2024-01-11T14:10:33;75.00;;;30.27;;
72864;SDS011;61000;48.120;11.548;2024-01-11T14:13:00;67.03;;;28.87;;
72864;SDS011;61000;48.120;11.548;2024-01-11T14:15:28;77.13;;;32.53;;
72864;SDS011;61000;48.120;11.548;2024-01-11T14:17:56;77.93;;;30.23;;
72864;SDS011;61000;48.120;11.548;2024-01-11T14:20:23;77.10;;;31.10;;